Time;durP1;ratioP1;P1;durP2;ratioP2;P2;SDS_P1;SDS_P2;PMS_P1;PMS_P2;Temp;Humidity;BMP_temperature;BMP_pressure;BME280_temperature;BME280_humidity;BME280_pressure;Samples;Min_cycle;Max_cycle;Signal;HPM_P1;HPM_P2
2021/05/11 00:01:18;;;;;;;2.47;1.57;;;;;;;;;;5032415;28;20450;-68
2021/05/11 00:03:44;;;;;;;2.43;1.40;;;;;;;;;;5031819;28;20466;-66
2021/05/11 00:06:11;;;;;;;4.03;1.30;;;;;;;;;;5033627;28;20441;-66
2021/05/11 00:08:37;;;;;;;4.17;1.37;;;;;;;;;;5032234;28;20423;-66
2021/05/11 00:11:04;;;;;;;3.60;1.30;;;;;;;;;;5033419;28;20419;-66
2021/05/11 00:13:30;;;;;;;2.63;1.50;;;;;;;;;;5032180;28;20518;-66
2021/05/11 00:15:56;;;;;;;1.97;1.30;;;;;;;;;;5032257;28;20768;-66
2021/05/11 00:18:22;;;;;;;4.27;1.30;;;;;;;;;;5032656;28;20403;-67
2021/05/11 00:20:48;;;;;;;2.87;1.27;;;;;;;;;;5033618;28;20784;-66
2021/05/11 00:23:14;;;;;;;1.93;1.23;;;;;;;;;;5032175;28;20461;-67
2021/05/11 00:25:40;;;;;;;4.07;1.23;;;;;;;;;;5033035;28;20402;-66
2021/05/11 00:28:06;;;;;;;2.13;1.40;;;;;;;;;;5033422;28;20401;-69
2021/05/11 00:30:33;;;;;;;4.10;1.80;;;;;;;;;;5032681;28;20532;-66
2021/05/11 00:32:59;;;;;;;2.93;1.30;;;;;;;;;;5033429;28;20454;-66
2021/05/11 00:35:25;;;;;;;2.37;1.10;;;;;;;;;;5030100;28;20431;-67
2021/05/11 00:37:51;;;;;;;5.13;1.30;;;;;;;;;;5033309;28;20403;-66
2021/05/11 00:40:17;;;;;;;2.30;1.17;;;;;;;;;;5032154;28;20446;-68
2021/05/11 00:42:43;;;;;;;2.30;1.30;;;;;;;;;;5033421;28;20409;-66
2021/05/11 00:45:09;;;;;;;2.77;1.20;;;;;;;;;;5032012;28;20520;-66
2021/05/11 00:47:35;;;;;;;2.60;1.37;;;;;;;;;;5031559;28;20446;-66
2021/05/11 00:50:02;;;;;;;2.90;1.20;;;;;;;;;;5031674;28;20934;-66
2021/05/11 00:52:28;;;;;;;4.00;1.60;;;;;;;;;;5032759;28;20853;-66
2021/05/11 00:54:54;;;;;;;2.20;1.17;;;;;;;;;;5031598;28;20518;-66
2021/05/11 00:57:21;;;;;;;2.03;1.23;;;;;;;;;;5032837;28;20640;-66
2021/05/11 00:59:47;;;;;;;3.83;1.50;;;;;;;;;;5030827;28;20450;-66
2021/05/11 01:02:13;;;;;;;3.87;1.20;;;;;;;;;;5032484;28;20509;-66
2021/05/11 01:04:39;;;;;;;2.00;1.20;;;;;;;;;;5031654;28;20461;-66
2021/05/11 01:07:06;;;;;;;2.70;1.03;;;;;;;;;;5033813;28;20431;-66
2021/05/11 01:09:32;;;;;;;1.80;1.13;;;;;;;;;;5035737;28;20415;-66
2021/05/11 01:11:58;;;;;;;2.20;1.50;;;;;;;;;;5035386;28;20426;-66
2021/05/11 01:14:26;;;;;;;2.33;1.17;;;;;;;;;;5035434;28;20433;-66
2021/05/11 01:16:57;;;;;;;8.17;1.57;;;;;;;;;;5036582;28;20549;-66
2021/05/11 01:24:35;;;;;;;2.03;1.20;;;;;;;;;;5020474;28;20478;-66
2021/05/11 01:29:45;;;;;;;2.17;1.07;;;;;;;;;;5035310;28;20430;-66
2021/05/11 01:32:33;;;;;;;2.00;1.20;;;;;;;;;;5036441;28;20421;-66
2021/05/11 02:09:58;;;;;;;1.80;1.23;;;;;;;;;;5007191;28;20493;-66
2021/05/11 02:23:32;;;;;;;1.90;1.10;;;;;;;;;;5035595;28;21035;-66
2021/05/11 02:25:59;;;;;;;1.80;1.00;;;;;;;;;;5034541;28;20428;-66
2021/05/11 02:28:26;;;;;;;2.23;1.20;;;;;;;;;;5035667;28;20407;-66
2021/05/11 02:30:53;;;;;;;3.63;1.13;;;;;;;;;;5034437;28;20470;-66
2021/05/11 02:33:19;;;;;;;2.37;1.10;;;;;;;;;;5035223;28;20410;-66
2021/05/11 02:35:45;;;;;;;3.00;1.30;;;;;;;;;;5033856;28;20445;-66
2021/05/11 02:38:12;;;;;;;1.50;0.93;;;;;;;;;;5035118;28;20407;-67
2021/05/11 02:40:38;;;;;;;1.80;1.20;;;;;;;;;;5034076;28;20447;-66
2021/05/11 02:43:12;;;;;;;2.10;1.30;;;;;;;;;;5035060;28;20434;-66
2021/05/11 02:45:38;;;;;;;3.10;1.13;;;;;;;;;;5034307;28;20422;-66
2021/05/11 02:48:05;;;;;;;1.90;1.20;;;;;;;;;;5035230;28;20399;-66
2021/05/11 02:50:31;;;;;;;1.60;1.00;;;;;;;;;;5032685;28;20470;-66
2021/05/11 02:52:58;;;;;;;1.60;1.13;;;;;;;;;;5014987;28;20408;-67
2021/05/11 02:55:24;;;;;;;1.80;1.10;;;;;;;;;;5029297;28;20484;-67
2021/05/11 02:57:52;;;;;;;2.40;1.20;;;;;;;;;;5034783;28;20859;-67
2021/05/11 03:00:19;;;;;;;2.10;1.20;;;;;;;;;;5033503;28;20813;-67
2021/05/11 03:02:45;;;;;;;2.00;1.13;;;;;;;;;;5032496;28;20920;-67
2021/05/11 03:05:12;;;;;;;2.00;1.30;;;;;;;;;;5033837;28;20490;-69
2021/05/11 03:07:38;;;;;;;2.20;1.30;;;;;;;;;;5034623;28;20414;-67
2021/05/11 03:10:06;;;;;;;2.10;1.13;;;;;;;;;;5034711;28;20449;-67
2021/05/11 03:12:32;;;;;;;1.77;1.03;;;;;;;;;;5033380;28;20919;-67
2021/05/11 03:14:58;;;;;;;1.60;1.20;;;;;;;;;;5034393;28;20911;-67
2021/05/11 03:17:24;;;;;;;1.90;1.10;;;;;;;;;;5017679;28;20549;-67
2021/05/11 03:19:50;;;;;;;2.33;1.90;;;;;;;;;;5016317;28;20997;-67
2021/05/11 03:22:16;;;;;;;3.50;1.30;;;;;;;;;;5032553;28;20923;-67
2021/05/11 03:24:45;;;;;;;3.73;1.47;;;;;;;;;;5034098;28;20458;-67
2021/05/11 03:27:15;;;;;;;6.30;1.37;;;;;;;;;;5033409;28;20427;-67
2021/05/11 03:29:42;;;;;;;2.00;1.20;;;;;;;;;;5033113;28;20490;-67
2021/05/11 03:32:08;;;;;;;1.83;1.10;;;;;;;;;;5032981;28;20455;-67
2021/05/11 03:34:35;;;;;;;2.43;1.27;;;;;;;;;;5033982;28;20406;-67
2021/05/11 03:37:01;;;;;;;5.03;1.80;;;;;;;;;;5033200;28;20431;-67
2021/05/11 03:39:27;;;;;;;2.50;1.50;;;;;;;;;;5033927;28;20399;-67
2021/05/11 03:42:00;;;;;;;2.30;1.70;;;;;;;;;;5019612;28;20916;-67
2021/05/11 03:44:31;;;;;;;1.53;1.03;;;;;;;;;;5013995;28;20447;-67
2021/05/11 03:46:57;;;;;;;4.53;1.20;;;;;;;;;;5026162;28;20444;-67
2021/05/11 03:49:23;;;;;;;1.83;1.17;;;;;;;;;;5034170;28;20773;-67
2021/05/11 03:51:50;;;;;;;3.93;1.93;;;;;;;;;;5021499;28;20964;-70
2021/05/11 03:54:16;;;;;;;2.40;1.67;;;;;;;;;;5018903;28;21063;-67
2021/05/11 03:56:42;;;;;;;1.83;1.20;;;;;;;;;;5023732;28;20438;-67
2021/05/11 03:59:09;;;;;;;3.07;1.57;;;;;;;;;;5033944;28;20460;-67
2021/05/11 04:01:35;;;;;;;2.50;1.97;;;;;;;;;;5032713;28;20470;-67
2021/05/11 04:04:01;;;;;;;1.90;1.20;;;;;;;;;;5033871;28;20442;-67
2021/05/11 04:06:27;;;;;;;1.70;1.00;;;;;;;;;;5032745;28;20477;-67
2021/05/11 04:14:11;;;;;;;5.07;1.33;;;;;;;;;;5034000;28;20407;-67
2021/05/11 04:16:40;;;;;;;1.97;1.20;;;;;;;;;;5032201;28;20461;-67
2021/05/11 04:19:06;;;;;;;2.80;1.60;;;;;;;;;;5031390;28;20924;-67
2021/05/11 04:21:32;;;;;;;2.63;1.47;;;;;;;;;;5032556;28;20820;-67
2021/05/11 04:23:59;;;;;;;3.13;1.80;;;;;;;;;;5032994;28;20496;-67
2021/05/11 04:26:25;;;;;;;3.07;1.37;;;;;;;;;;5032293;28;20433;-67
2021/05/11 04:28:51;;;;;;;2.57;1.20;;;;;;;;;;5033586;28;20403;-67
2021/05/11 04:31:17;;;;;;;2.53;1.60;;;;;;;;;;5032114;28;20499;-67
2021/05/11 04:33:44;;;;;;;1.70;1.20;;;;;;;;;;5033459;28;20438;-67
2021/05/11 04:36:10;;;;;;;2.20;1.20;;;;;;;;;;5032322;28;20431;-67
2021/05/11 04:38:37;;;;;;;2.37;1.30;;;;;;;;;;5033297;28;20478;-67
2021/05/11 04:41:03;;;;;;;1.80;1.17;;;;;;;;;;5031900;28;20465;-67
2021/05/11 04:43:31;;;;;;;2.37;1.50;;;;;;;;;;5031432;28;20508;-67
2021/05/11 04:46:14;;;;;;;2.60;1.80;;;;;;;;;;5031919;28;20398;-67
2021/05/11 04:48:41;;;;;;;2.03;1.27;;;;;;;;;;5033157;28;20391;-67
2021/05/11 04:51:07;;;;;;;2.57;1.97;;;;;;;;;;5031995;28;20451;-67
2021/05/11 04:53:33;;;;;;;2.00;1.30;;;;;;;;;;5033147;28;20403;-67
2021/05/11 04:55:59;;;;;;;3.70;2.60;;;;;;;;;;5030450;28;20610;-67
2021/05/11 04:58:25;;;;;;;7.03;3.73;;;;;;;;;;5032864;28;20406;-67
2021/05/11 05:00:59;;;;;;;3.40;1.43;;;;;;;;;;5026466;28;20795;-67
2021/05/11 05:03:26;;;;;;;2.73;1.50;;;;;;;;;;5032596;28;20450;-67
2021/05/11 05:05:52;;;;;;;3.03;1.87;;;;;;;;;;5030274;28;20421;-70
2021/05/11 05:08:18;;;;;;;2.60;1.53;;;;;;;;;;5013305;28;20416;-67
2021/05/11 05:10:45;;;;;;;5.20;1.80;;;;;;;;;;5012841;28;20420;-67
2021/05/11 05:13:17;;;;;;;2.70;1.77;;;;;;;;;;5031029;28;20939;-67
2021/05/11 05:15:43;;;;;;;2.87;1.77;;;;;;;;;;5033020;28;20376;-67
2021/05/11 05:18:09;;;;;;;2.20;1.67;;;;;;;;;;5031506;28;20430;-67
2021/05/11 05:20:35;;;;;;;2.37;1.57;;;;;;;;;;5032374;28;20419;-67
2021/05/11 05:23:01;;;;;;;5.30;1.97;;;;;;;;;;5031457;28;20505;-67
2021/05/11 05:25:28;;;;;;;7.80;1.90;;;;;;;;;;5032823;28;20398;-67
2021/05/11 05:30:21;;;;;;;3.83;1.97;;;;;;;;;;5032729;28;20462;-67
2021/05/11 05:32:47;;;;;;;2.30;1.60;;;;;;;;;;5031419;28;20974;-66
2021/05/11 05:35:13;;;;;;;2.30;1.70;;;;;;;;;;5030098;28;20895;-66
2021/05/11 05:37:39;;;;;;;4.57;1.60;;;;;;;;;;5030903;28;20505;-66
2021/05/11 05:40:08;;;;;;;5.93;1.77;;;;;;;;;;5030168;28;20418;-66
2021/05/11 05:42:35;;;;;;;2.87;1.50;;;;;;;;;;5031400;28;20518;-65
2021/05/11 05:45:01;;;;;;;3.33;1.77;;;;;;;;;;5032044;28;20458;-66
2021/05/11 05:47:27;;;;;;;3.47;1.83;;;;;;;;;;5030666;28;20418;-66
2021/05/11 05:50:06;;;;;;;2.50;1.70;;;;;;;;;;5030819;28;20411;-66
2021/05/11 05:52:38;;;;;;;4.03;1.47;;;;;;;;;;5030291;28;20973;-66
2021/05/11 05:55:04;;;;;;;3.33;1.63;;;;;;;;;;5035928;28;20753;-66
2021/05/11 05:57:30;;;;;;;1.93;1.50;;;;;;;;;;5034813;28;20437;-66
2021/05/11 05:59:56;;;;;;;2.07;1.50;;;;;;;;;;5035516;28;20456;-66
2021/05/11 06:02:23;;;;;;;1.90;1.47;;;;;;;;;;5034109;28;20434;-66
2021/05/11 06:04:49;;;;;;;2.43;1.90;;;;;;;;;;5035535;28;20458;-66
2021/05/11 06:07:16;;;;;;;1.80;1.27;;;;;;;;;;5030442;28;20424;-66
2021/05/11 06:09:42;;;;;;;3.63;1.90;;;;;;;;;;5016805;28;20420;-66
2021/05/11 06:12:19;;;;;;;2.87;1.83;;;;;;;;;;5016346;28;20446;-67
2021/05/11 06:17:00;;;;;;;3.00;1.50;;;;;;;;;;5015940;28;20400;-66
2021/05/11 06:17:41;;;;;;;2.40;1.53;;;;;;;;;;5021569;28;20442;-66
2021/05/11 06:20:07;;;;;;;2.40;1.40;;;;;;;;;;5035496;28;20392;-67
2021/05/11 06:22:33;;;;;;;4.03;2.10;;;;;;;;;;5034203;28;20426;-68
2021/05/11 06:25:00;;;;;;;2.40;1.63;;;;;;;;;;5033684;28;20462;-66
2021/05/11 06:27:26;;;;;;;2.60;1.90;;;;;;;;;;5034536;28;20419;-66
2021/05/11 06:29:56;;;;;;;2.30;1.50;;;;;;;;;;5035452;28;20884;-68
2021/05/11 06:32:22;;;;;;;2.83;1.93;;;;;;;;;;5036012;28;20430;-67
2021/05/11 06:34:56;;;;;;;3.17;1.93;;;;;;;;;;5037092;28;20399;-67
2021/05/11 06:37:22;;;;;;;2.73;1.43;;;;;;;;;;5034195;28;20426;-68
2021/05/11 06:39:50;;;;;;;2.60;1.50;;;;;;;;;;5035305;28;20406;-67
2021/05/11 06:42:17;;;;;;;5.90;1.90;;;;;;;;;;5033511;28;20475;-67
2021/05/11 06:47:31;;;;;;;2.30;1.70;;;;;;;;;;5033826;28;20439;-68
2021/05/11 06:54:58;;;;;;;2.13;1.40;;;;;;;;;;5035029;28;20418;-67
2021/05/11 06:57:25;;;;;;;3.67;1.80;;;;;;;;;;5046224;28;20434;-68
2021/05/11 06:59:51;;;;;;;2.53;1.83;;;;;;;;;;5031499;28;20419;-67
2021/05/11 07:02:17;;;;;;;3.30;1.70;;;;;;;;;;5024705;28;20469;-67
2021/05/11 07:04:44;;;;;;;2.23;1.40;;;;;;;;;;5028962;28;20455;-71
2021/05/11 07:07:13;;;;;;;3.40;1.83;;;;;;;;;;5030415;28;20419;-69
2021/05/11 07:14:56;;;;;;;2.93;2.10;;;;;;;;;;5023142;28;21007;-72
2021/05/11 07:17:22;;;;;;;2.60;1.70;;;;;;;;;;5027472;28;20428;-74
2021/05/11 07:19:48;;;;;;;3.23;1.80;;;;;;;;;;5026229;28;20459;-74
2021/05/11 07:22:14;;;;;;;5.13;2.20;;;;;;;;;;5020247;28;20458;-76
2021/05/11 07:24:40;;;;;;;2.20;1.40;;;;;;;;;;5017389;28;20540;-70
2021/05/11 07:32:02;;;;;;;4.27;1.70;;;;;;;;;;5029541;28;20435;-77
2021/05/11 07:34:29;;;;;;;5.03;1.50;;;;;;;;;;5031554;28;20510;-77
2021/05/11 07:36:55;;;;;;;2.93;1.77;;;;;;;;;;5019082;28;20446;-73
2021/05/11 07:39:24;;;;;;;2.67;1.80;;;;;;;;;;5031247;28;20751;-69
2021/05/11 07:41:50;;;;;;;3.90;2.20;;;;;;;;;;5029604;28;20481;-69
2021/05/11 07:44:16;;;;;;;4.70;2.13;;;;;;;;;;5028004;28;20546;-70
2021/05/11 07:46:55;;;;;;;6.07;2.17;;;;;;;;;;5030276;28;20425;-70
2021/05/11 07:52:24;;;;;;;5.70;2.60;;;;;;;;;;5020905;28;20451;-69
2021/05/11 08:16:29;;;;;;;4.13;2.30;;;;;;;;;;5031700;28;20488;-70
2021/05/11 08:29:27;;;;;;;3.30;1.90;;;;;;;;;;5022932;28;20421;-66
2021/05/11 08:31:53;;;;;;;8.23;2.70;;;;;;;;;;5021446;28;20520;-66
2021/05/11 08:34:19;;;;;;;4.20;2.40;;;;;;;;;;5026522;28;20415;-66
2021/05/11 08:36:45;;;;;;;4.37;2.50;;;;;;;;;;5029291;28;20398;-66
2021/05/11 08:39:11;;;;;;;3.83;2.20;;;;;;;;;;5030419;28;20425;-66
2021/05/11 08:41:37;;;;;;;4.00;2.60;;;;;;;;;;5030833;28;20858;-66
2021/05/11 08:44:07;;;;;;;4.00;2.60;;;;;;;;;;5028496;28;21049;-66
2021/05/11 08:46:35;;;;;;;6.43;2.43;;;;;;;;;;5029209;28;20403;-66
2021/05/11 08:49:04;;;;;;;5.63;2.50;;;;;;;;;;5028351;28;20419;-66
2021/05/11 08:51:39;;;;;;;6.20;2.43;;;;;;;;;;5023471;28;20594;-69
2021/05/11 09:04:34;;;;;;;5.23;2.50;;;;;;;;;;5016224;28;20445;-69
2021/05/11 09:23:31;;;;;;;3.80;2.30;;;;;;;;;;5026869;28;20441;-68
2021/05/11 09:27:24;;;;;;;5.00;2.77;;;;;;;;;;5029206;28;20184;-67
2021/05/11 09:52:03;;;;;;;4.07;2.60;;;;;;;;;;4987730;28;20444;-70
2021/05/11 09:57:10;;;;;;;3.90;2.40;;;;;;;;;;5032089;28;20430;-70
2021/05/11 10:44:26;;;;;;;9.13;3.20;;;;;;;;;;5034225;28;20451;-72
2021/05/11 10:47:01;;;;;;;5.80;2.83;;;;;;;;;;5022243;28;20816;-71
2021/05/11 10:49:36;;;;;;;4.60;2.90;;;;;;;;;;5028123;28;20942;-68
2021/05/11 10:52:28;;;;;;;4.37;2.93;;;;;;;;;;5033264;28;20969;-69
2021/05/11 10:55:24;;;;;;;4.95;3.20;;;;;;;;;;5032684;28;20917;-66
2021/05/11 10:57:59;;;;;;;3.43;2.60;;;;;;;;;;5033809;28;20195;-70
2021/05/11 11:05:40;;;;;;;9.53;3.07;;;;;;;;;;5030278;28;20423;-69
2021/05/11 11:08:26;;;;;;;4.87;2.90;;;;;;;;;;5041505;28;20792;-68
2021/05/11 11:10:52;;;;;;;4.07;2.70;;;;;;;;;;5016527;28;20442;-69
2021/05/11 11:13:19;;;;;;;5.17;3.03;;;;;;;;;;5031464;28;20407;-69
2021/05/11 11:15:45;;;;;;;5.00;2.87;;;;;;;;;;5032664;28;20415;-69
2021/05/11 11:18:11;;;;;;;7.80;3.00;;;;;;;;;;5030941;28;20417;-69
2021/05/11 11:20:44;;;;;;;9.73;2.90;;;;;;;;;;5030318;28;20442;-69
2021/05/11 11:26:06;;;;;;;5.40;3.00;;;;;;;;;;5024891;28;20509;-70
2021/05/11 11:28:32;;;;;;;6.00;2.97;;;;;;;;;;5026989;28;20415;-72
2021/05/11 11:30:59;;;;;;;5.33;3.40;;;;;;;;;;5028962;28;20533;-73
2021/05/11 11:33:25;;;;;;;5.30;2.87;;;;;;;;;;5028963;28;20415;-68
2021/05/11 11:35:51;;;;;;;4.60;3.13;;;;;;;;;;5026411;28;20435;-71
2021/05/11 11:38:21;;;;;;;7.03;3.23;;;;;;;;;;5035181;28;20446;-71
2021/05/11 11:40:47;;;;;;;6.13;3.13;;;;;;;;;;5035370;28;20453;-71
2021/05/11 11:43:24;;;;;;;5.82;3.30;;;;;;;;;;5027757;28;20488;-67
2021/05/11 11:45:51;;;;;;;8.07;3.67;;;;;;;;;;5029201;28;20212;-70
2021/05/11 11:48:20;;;;;;;10.70;3.60;;;;;;;;;;5029026;28;20509;-71
2021/05/11 11:50:53;;;;;;;4.47;3.20;;;;;;;;;;5031130;28;20431;-69
2021/05/11 11:53:23;;;;;;;4.67;3.40;;;;;;;;;;5032421;28;20430;-68
2021/05/11 11:58:32;;;;;;;9.50;3.60;;;;;;;;;;5026378;28;20507;-68
2021/05/11 12:00:58;;;;;;;8.17;2.87;;;;;;;;;;5029705;28;20534;-65
2021/05/11 12:03:24;;;;;;;6.93;2.80;;;;;;;;;;5029796;28;20430;-64
2021/05/11 12:05:59;;;;;;;5.63;3.10;;;;;;;;;;5026878;28;20481;-63
2021/05/11 12:08:28;;;;;;;13.20;3.80;;;;;;;;;;5029112;28;20446;-68
2021/05/11 12:10:55;;;;;;;12.53;2.73;;;;;;;;;;5027802;28;20456;-68
2021/05/11 12:13:25;;;;;;;5.60;3.43;;;;;;;;;;5031309;28;20469;-68
2021/05/11 12:16:08;;;;;;;5.83;3.10;;;;;;;;;;5024409;28;20418;-68
2021/05/11 12:18:35;;;;;;;6.30;3.33;;;;;;;;;;5028508;28;20417;-67
2021/05/11 12:21:03;;;;;;;6.23;3.27;;;;;;;;;;5030611;28;20442;-67
2021/05/11 12:23:29;;;;;;;9.80;2.80;;;;;;;;;;5030447;28;20434;-67
2021/05/11 12:25:56;;;;;;;5.53;3.47;;;;;;;;;;5029687;28;20452;-67
2021/05/11 12:28:36;;;;;;;6.93;3.27;;;;;;;;;;5032074;28;20423;-68
2021/05/11 12:31:06;;;;;;;6.87;2.87;;;;;;;;;;5027683;28;20446;-68
2021/05/11 12:33:36;;;;;;;5.63;3.40;;;;;;;;;;5030621;28;20415;-67
2021/05/11 12:36:14;;;;;;;5.03;3.50;;;;;;;;;;5027252;28;20960;-67
2021/05/11 12:38:40;;;;;;;6.67;3.73;;;;;;;;;;5028072;28;20422;-67
2021/05/11 12:41:11;;;;;;;7.77;3.90;;;;;;;;;;5030778;28;20454;-68
2021/05/11 12:43:51;;;;;;;6.67;3.40;;;;;;;;;;5031910;28;21250;-68
2021/05/11 12:46:20;;;;;;;5.50;3.70;;;;;;;;;;5028595;28;20430;-68
2021/05/11 12:49:03;;;;;;;5.60;4.17;;;;;;;;;;5027309;28;20422;-68
2021/05/11 12:51:31;;;;;;;6.77;4.13;;;;;;;;;;5028572;28;20450;-68
2021/05/11 12:54:00;;;;;;;5.60;3.90;;;;;;;;;;5034643;28;20418;-68
2021/05/11 12:57:05;;;;;;;5.93;4.40;;;;;;;;;;5026232;28;20418;-68
2021/05/11 12:59:39;;;;;;;5.03;3.93;;;;;;;;;;5030049;28;20510;-68
2021/05/11 13:26:09;;;;;;;6.80;4.60;;;;;;;;;;5019147;28;20430;-68
2021/05/11 13:28:52;;;;;;;5.43;4.27;;;;;;;;;;5030377;28;20440;-68
2021/05/11 13:31:27;;;;;;;6.03;3.67;;;;;;;;;;5030471;28;20450;-68
2021/05/11 13:34:10;;;;;;;6.07;4.07;;;;;;;;;;5033646;28;20449;-69
2021/05/11 13:36:37;;;;;;;5.43;3.90;;;;;;;;;;5030952;28;20430;-67
2021/05/11 13:39:04;;;;;;;6.20;4.13;;;;;;;;;;5033749;28;20477;-68
2021/05/11 13:41:30;;;;;;;5.07;3.40;;;;;;;;;;5032611;28;20523;-67
2021/05/11 13:43:56;;;;;;;4.30;3.80;;;;;;;;;;5034386;28;20933;-67
2021/05/11 13:46:22;;;;;;;7.20;4.00;;;;;;;;;;5032577;28;20480;-67
2021/05/11 13:48:49;;;;;;;5.53;4.07;;;;;;;;;;5032936;28;20429;-68
2021/05/11 13:51:18;;;;;;;4.90;3.27;;;;;;;;;;5028876;28;21093;-67
2021/05/11 13:53:46;;;;;;;11.57;4.17;;;;;;;;;;5033174;28;20414;-68
2021/05/11 13:56:20;;;;;;;8.60;5.37;;;;;;;;;;5025652;28;20462;-67
2021/05/11 14:04:01;;;;;;;8.63;5.60;;;;;;;;;;5028727;28;20451;-67
2021/05/11 14:06:28;;;;;;;7.50;4.70;;;;;;;;;;5032020;28;20561;-67
2021/05/11 14:08:54;;;;;;;6.77;5.03;;;;;;;;;;5029492;28;20927;-67
2021/05/11 14:11:20;;;;;;;8.80;5.90;;;;;;;;;;5031758;28;20476;-67
2021/05/11 14:13:46;;;;;;;9.80;4.87;;;;;;;;;;5032772;28;20514;-67
2021/05/11 14:16:12;;;;;;;11.00;5.83;;;;;;;;;;5030833;28;20427;-67
2021/05/11 14:18:38;;;;;;;6.97;5.07;;;;;;;;;;5033156;28;20824;-67
2021/05/11 14:21:06;;;;;;;8.00;6.83;;;;;;;;;;5031720;28;21088;-67
2021/05/11 14:23:32;;;;;;;16.10;5.97;;;;;;;;;;5030936;28;20426;-67
2021/05/11 14:25:58;;;;;;;8.53;5.20;;;;;;;;;;5030366;28;20468;-67
2021/05/11 14:28:25;;;;;;;5.80;4.80;;;;;;;;;;5020098;28;20534;-67
2021/05/11 14:30:51;;;;;;;7.13;5.67;;;;;;;;;;5037458;28;20455;-68
2021/05/11 14:33:17;;;;;;;7.87;5.10;;;;;;;;;;5033103;28;20526;-67
2021/05/11 14:35:43;;;;;;;7.10;5.23;;;;;;;;;;5031804;28;20415;-68
2021/05/11 14:38:09;;;;;;;6.30;5.60;;;;;;;;;;5031539;28;20943;-68
2021/05/11 14:40:35;;;;;;;8.27;4.77;;;;;;;;;;5031539;28;20923;-67
2021/05/11 14:43:01;;;;;;;7.03;5.20;;;;;;;;;;5032370;28;20431;-67
2021/05/11 14:45:27;;;;;;;6.90;4.90;;;;;;;;;;5034006;28;20455;-67
2021/05/11 14:47:54;;;;;;;6.67;4.90;;;;;;;;;;5032720;28;20419;-67
2021/05/11 14:50:21;;;;;;;7.53;4.40;;;;;;;;;;5033543;28;20423;-67
2021/05/11 14:52:51;;;;;;;9.30;5.03;;;;;;;;;;5030659;28;20741;-68
2021/05/11 14:55:19;;;;;;;6.93;4.07;;;;;;;;;;5023932;28;20547;-67
2021/05/11 14:57:45;;;;;;;5.50;4.57;;;;;;;;;;5030478;28;20414;-67
2021/05/11 15:00:11;;;;;;;5.70;4.80;;;;;;;;;;5032909;28;20403;-68
2021/05/11 15:02:38;;;;;;;7.83;4.33;;;;;;;;;;5031236;28;20415;-68
2021/05/11 15:05:04;;;;;;;8.50;3.93;;;;;;;;;;5029180;28;20508;-68
2021/05/11 15:07:30;;;;;;;6.10;4.53;;;;;;;;;;5032756;28;20427;-68
2021/05/11 15:09:56;;;;;;;6.10;5.40;;;;;;;;;;5050463;28;20502;-69
2021/05/11 15:12:22;;;;;;;8.93;5.63;;;;;;;;;;5030588;28;20418;-67
2021/05/11 15:14:48;;;;;;;5.90;4.53;;;;;;;;;;5023353;28;20477;-68
2021/05/11 15:19:57;;;;;;;6.27;5.50;;;;;;;;;;5041219;28;20501;-67
2021/05/11 15:22:23;;;;;;;7.60;5.50;;;;;;;;;;5030868;28;20434;-67
2021/05/11 15:24:50;;;;;;;8.60;5.20;;;;;;;;;;5032663;28;20515;-68
2021/05/11 15:27:16;;;;;;;7.53;5.30;;;;;;;;;;5025669;28;20925;-67
2021/05/11 15:29:42;;;;;;;6.93;5.83;;;;;;;;;;5032803;28;20930;-67
2021/05/11 15:32:27;;;;;;;7.67;6.30;;;;;;;;;;5031517;28;20923;-68
2021/05/11 15:34:53;;;;;;;8.70;5.80;;;;;;;;;;5030360;28;20481;-67
2021/05/11 15:37:19;;;;;;;9.40;8.27;;;;;;;;;;5030630;28;20509;-67
2021/05/11 15:39:45;;;;;;;9.77;6.90;;;;;;;;;;5030744;28;20419;-68
2021/05/11 15:42:11;;;;;;;10.37;6.30;;;;;;;;;;5031469;28;20503;-67
2021/05/11 15:44:37;;;;;;;13.60;6.17;;;;;;;;;;5031740;28;20453;-68
2021/05/11 15:47:03;;;;;;;7.63;6.10;;;;;;;;;;5027518;28;20449;-67
2021/05/11 15:49:30;;;;;;;7.07;5.53;;;;;;;;;;5029437;28;20423;-68
2021/05/11 15:51:56;;;;;;;7.77;6.37;;;;;;;;;;5025786;28;20447;-68
2021/05/11 15:54:22;;;;;;;8.77;6.10;;;;;;;;;;5027272;28;20439;-67
2021/05/11 15:56:48;;;;;;;8.23;6.03;;;;;;;;;;5027154;28;20442;-68
2021/05/11 15:59:14;;;;;;;8.80;7.13;;;;;;;;;;5037095;28;20429;-67
2021/05/11 16:01:40;;;;;;;9.77;6.80;;;;;;;;;;5028956;28;20516;-67
2021/05/11 16:04:06;;;;;;;7.20;6.37;;;;;;;;;;5031682;28;20450;-68
2021/05/11 16:06:32;;;;;;;9.03;6.63;;;;;;;;;;5030877;28;20415;-68
2021/05/11 16:08:58;;;;;;;8.83;6.10;;;;;;;;;;5033017;28;20410;-67
2021/05/11 16:11:24;;;;;;;9.83;6.60;;;;;;;;;;5032954;28;20916;-67
2021/05/11 16:13:50;;;;;;;9.10;5.60;;;;;;;;;;5032284;28;20938;-67
2021/05/11 16:16:17;;;;;;;10.43;5.87;;;;;;;;;;5031924;28;20438;-67
2021/05/11 16:18:43;;;;;;;7.20;5.30;;;;;;;;;;5032420;28;20427;-67
2021/05/11 16:21:09;;;;;;;7.10;5.60;;;;;;;;;;5033237;28;20449;-67
2021/05/11 16:23:35;;;;;;;8.80;6.50;;;;;;;;;;5031478;28;20608;-67
2021/05/11 16:26:01;;;;;;;9.67;7.90;;;;;;;;;;5032906;28;20415;-67
2021/05/11 16:28:27;;;;;;;11.03;8.13;;;;;;;;;;5027840;28;20417;-69
2021/05/11 16:30:53;;;;;;;12.90;8.37;;;;;;;;;;5031221;28;20600;-69
2021/05/11 16:33:19;;;;;;;12.23;8.83;;;;;;;;;;5031010;28;20414;-70
2021/05/11 16:35:47;;;;;;;11.10;7.63;;;;;;;;;;5032959;28;20848;-70
2021/05/11 16:38:13;;;;;;;13.87;8.30;;;;;;;;;;5027255;28;20419;-70
2021/05/11 16:40:40;;;;;;;13.20;8.50;;;;;;;;;;5014023;28;20430;-69
2021/05/11 16:43:06;;;;;;;13.07;8.30;;;;;;;;;;5030066;28;20421;-70
2021/05/11 16:45:35;;;;;;;11.93;7.63;;;;;;;;;;5016986;28;20839;-71
2021/05/11 16:48:01;;;;;;;11.30;8.47;;;;;;;;;;5031726;28;20511;-70
2021/05/11 16:50:28;;;;;;;11.97;8.73;;;;;;;;;;5031991;28;20476;-71
2021/05/11 16:52:56;;;;;;;10.80;8.20;;;;;;;;;;5030804;28;20419;-67
2021/05/11 16:55:23;;;;;;;9.73;8.27;;;;;;;;;;5031071;28;20410;-68
2021/05/11 16:57:50;;;;;;;10.07;7.47;;;;;;;;;;5026240;28;20412;-69
2021/05/11 17:00:16;;;;;;;10.50;8.77;;;;;;;;;;5012310;28;20479;-67
2021/05/11 17:02:42;;;;;;;10.90;8.67;;;;;;;;;;5029344;28;20425;-68
2021/05/11 17:05:10;;;;;;;10.83;7.90;;;;;;;;;;5030414;28;20473;-69
2021/05/11 17:07:36;;;;;;;9.73;8.03;;;;;;;;;;5030514;28;20974;-70
2021/05/11 17:10:02;;;;;;;10.07;8.83;;;;;;;;;;5031723;28;20419;-70
2021/05/11 17:12:28;;;;;;;10.63;7.93;;;;;;;;;;5030433;28;20856;-69
2021/05/11 17:14:54;;;;;;;12.20;7.37;;;;;;;;;;5031946;28;20899;-68
2021/05/11 17:17:20;;;;;;;13.38;8.25;;;;;;;;;;5031878;28;20409;-65
2021/05/11 17:19:46;;;;;;;15.70;8.73;;;;;;;;;;5029571;28;20531;-63
2021/05/11 17:22:13;;;;;;;16.33;7.63;;;;;;;;;;5032413;28;20758;-65
2021/05/11 17:24:39;;;;;;;11.27;8.83;;;;;;;;;;5029997;28;20593;-63
2021/05/11 17:27:06;;;;;;;12.80;8.40;;;;;;;;;;5031355;28;20426;-63
2021/05/11 17:29:33;;;;;;;14.83;9.20;;;;;;;;;;5030986;28;20425;-62
2021/05/11 17:31:59;;;;;;;9.93;8.03;;;;;;;;;;5032116;28;20435;-62
2021/05/11 17:34:25;;;;;;;10.33;7.57;;;;;;;;;;5030747;28;20460;-63
2021/05/11 17:36:51;;;;;;;12.23;9.18;;;;;;;;;;5031739;28;20440;-63
2021/05/11 17:39:17;;;;;;;7.93;5.97;;;;;;;;;;5032734;28;20200;-62
2021/05/11 17:41:43;;;;;;;11.27;8.20;;;;;;;;;;5033583;28;20457;-66
2021/05/11 17:44:09;;;;;;;9.90;7.10;;;;;;;;;;5030866;28;20451;-66
2021/05/11 17:46:35;;;;;;;9.53;8.00;;;;;;;;;;5039027;28;20414;-66
2021/05/11 17:49:02;;;;;;;9.80;7.67;;;;;;;;;;5038844;28;20450;-65
2021/05/11 17:51:28;;;;;;;8.20;7.03;;;;;;;;;;5042686;28;20429;-66
2021/05/11 17:53:54;;;;;;;9.60;8.50;;;;;;;;;;5035707;28;20422;-66
2021/05/11 17:56:23;;;;;;;12.50;8.57;;;;;;;;;;5030292;28;20522;-66
2021/05/11 17:58:49;;;;;;;13.27;9.63;;;;;;;;;;5016627;28;20458;-66
2021/05/11 18:01:15;;;;;;;12.33;9.33;;;;;;;;;;5016508;28;20423;-66
2021/05/11 18:03:42;;;;;;;12.00;9.13;;;;;;;;;;5024324;28;20422;-66
2021/05/11 18:06:08;;;;;;;10.53;8.17;;;;;;;;;;5036117;28;20836;-66
2021/05/11 18:08:34;;;;;;;13.40;8.40;;;;;;;;;;5035323;28;20414;-66
2021/05/11 18:11:00;;;;;;;11.67;8.63;;;;;;;;;;5036255;28;20419;-66
2021/05/11 18:13:32;;;;;;;11.03;8.70;;;;;;;;;;5035697;28;20831;-66
2021/05/11 18:15:58;;;;;;;10.37;6.97;;;;;;;;;;5036579;28;20384;-66
2021/05/11 18:18:24;;;;;;;6.40;4.90;;;;;;;;;;5036167;28;20426;-66
2021/05/11 18:20:50;;;;;;;3.77;2.83;;;;;;;;;;5036542;28;20524;-66
2021/05/11 18:23:16;;;;;;;2.77;1.83;;;;;;;;;;5035986;28;20407;-66
2021/05/11 18:25:42;;;;;;;2.20;1.67;;;;;;;;;;5034925;28;20465;-66
2021/05/11 18:28:08;;;;;;;2.03;1.40;;;;;;;;;;5035566;28;20493;-66
2021/05/11 18:30:35;;;;;;;1.93;1.30;;;;;;;;;;5034226;28;20458;-66
2021/05/11 18:33:01;;;;;;;3.67;1.13;;;;;;;;;;5035079;28;20852;-66
2021/05/11 18:35:30;;;;;;;2.00;1.20;;;;;;;;;;5018267;28;20435;-66
2021/05/11 18:40:23;;;;;;;2.00;0.87;;;;;;;;;;5016024;28;20456;-65
2021/05/11 18:42:49;;;;;;;2.03;0.80;;;;;;;;;;5015995;28;20408;-67
2021/05/11 18:45:17;;;;;;;1.50;0.90;;;;;;;;;;5029746;28;20458;-65
2021/05/11 18:47:55;;;;;;;2.27;1.20;;;;;;;;;;5035124;28;20407;-66
2021/05/11 18:50:21;;;;;;;2.13;1.00;;;;;;;;;;5034441;28;20918;-67
2021/05/11 18:52:47;;;;;;;2.00;1.00;;;;;;;;;;5035309;28;20399;-66
2021/05/11 18:55:13;;;;;;;2.77;1.03;;;;;;;;;;5034524;28;20503;-67
2021/05/11 18:57:39;;;;;;;2.90;1.07;;;;;;;;;;5016961;28;20454;-66
2021/05/11 19:00:06;;;;;;;2.10;1.10;;;;;;;;;;5027370;28;20435;-67
2021/05/11 19:02:32;;;;;;;3.10;1.00;;;;;;;;;;5035903;28;20417;-67